createdAt,value
2023-02-02T00:01:28.310Z,19.77
2023-02-02T00:03:57.175Z,21.03
2023-02-02T00:06:26.756Z,13.83
2023-02-02T00:08:58.154Z,17.40
2023-02-02T00:11:29.825Z,13.10
2023-02-02T00:13:57.963Z,17.20
2023-02-02T00:16:37.488Z,10.57
2023-02-02T00:19:08.014Z,15.43
2023-02-02T00:21:35.927Z,11.80
2023-02-02T00:24:08.719Z,16.07
2023-02-02T00:26:37.540Z,12.47
2023-02-02T00:29:06.872Z,11.67
2023-02-02T00:31:35.638Z,16.23
2023-02-02T00:34:03.627Z,20.07
2023-02-02T00:36:31.529Z,16.33
2023-02-02T00:39:22.547Z,14.13
2023-02-02T00:41:50.584Z,10.40
2023-02-02T00:44:35.811Z,17.17
2023-02-02T00:47:04.525Z,15.97
2023-02-02T00:49:32.763Z,17.87
2023-02-02T00:52:01.095Z,13.50
2023-02-02T00:54:30.648Z,9.37
2023-02-02T00:56:58.832Z,14.80
2023-02-02T00:59:26.890Z,9.60
2023-02-02T01:02:00.676Z,14.00
2023-02-02T01:04:28.714Z,9.63
2023-02-02T01:06:56.716Z,17.20
2023-02-02T01:09:30.545Z,12.27
2023-02-02T01:12:00.063Z,9.67
2023-02-02T01:14:28.218Z,13.57
2023-02-02T01:16:56.207Z,8.87
2023-02-02T01:19:24.172Z,12.27
2023-02-02T01:21:52.651Z,14.03
2023-02-02T01:24:20.509Z,13.43
2023-02-02T01:26:48.461Z,14.70
2023-02-02T01:29:18.303Z,13.70
2023-02-02T01:31:46.816Z,10.83
2023-02-02T01:34:14.863Z,11.57
2023-02-02T01:36:42.802Z,12.77
2023-02-02T01:39:10.919Z,18.23
2023-02-02T01:41:41.037Z,12.83
2023-02-02T01:44:42.264Z,11.43
2023-02-02T01:47:11.631Z,18.63
2023-02-02T01:49:41.244Z,14.80
2023-02-02T01:52:11.130Z,13.90
2023-02-02T01:54:43.128Z,11.80
2023-02-02T01:57:17.932Z,15.60
2023-02-02T01:59:48.616Z,13.97
2023-02-02T02:02:21.012Z,11.90
2023-02-02T02:04:51.132Z,15.93
2023-02-02T02:07:18.867Z,15.23
2023-02-02T02:09:47.151Z,7.47
2023-02-02T02:12:16.674Z,21.33
2023-02-02T02:15:05.596Z,19.57
2023-02-02T02:17:48.716Z,16.90
2023-02-02T02:21:07.290Z,15.07
2023-02-02T02:24:16.238Z,13.50
2023-02-02T02:26:58.684Z,13.33
2023-02-02T02:29:59.688Z,14.30
2023-02-02T02:32:41.434Z,12.13
2023-02-02T02:35:15.139Z,15.70
2023-02-02T02:37:49.002Z,23.30
2023-02-02T02:40:26.176Z,9.40
2023-02-02T02:45:23.231Z,19.97
2023-02-02T02:47:53.369Z,14.60
2023-02-02T02:50:21.561Z,15.17
2023-02-02T02:52:53.878Z,14.47
2023-02-02T02:55:21.940Z,16.00
2023-02-02T02:58:08.151Z,16.03
2023-02-02T03:00:49.641Z,10.13
2023-02-02T03:03:34.843Z,11.93
2023-02-02T03:06:08.399Z,16.67
2023-02-02T03:08:40.379Z,11.03
2023-02-02T03:11:09.718Z,14.97
2023-02-02T03:13:37.475Z,15.57
2023-02-02T03:16:05.702Z,15.37
2023-02-02T03:18:35.241Z,15.80
2023-02-02T03:21:03.125Z,15.63
2023-02-02T03:23:30.855Z,17.70
2023-02-02T03:25:59.611Z,19.33
2023-02-02T03:28:28.465Z,10.90
2023-02-02T03:30:57.359Z,11.50
2023-02-02T03:33:25.449Z,12.23
2023-02-02T03:35:54.678Z,16.13
2023-02-02T03:38:22.371Z,16.60
2023-02-02T03:40:51.423Z,21.13
2023-02-02T03:43:21.659Z,10.43
2023-02-02T03:45:49.470Z,17.17
2023-02-02T03:48:17.107Z,13.00
2023-02-02T03:50:44.754Z,13.33
2023-02-02T03:53:13.710Z,16.83
2023-02-02T03:55:42.124Z,13.60
2023-02-02T03:58:09.768Z,21.40
2023-02-02T04:00:37.652Z,14.73
2023-02-02T04:03:05.495Z,18.10
2023-02-02T04:05:33.314Z,24.27
2023-02-02T04:08:01.028Z,17.53
2023-02-02T04:10:30.034Z,15.57
2023-02-02T04:12:58.113Z,12.00
2023-02-02T04:15:26.128Z,14.00
2023-02-02T04:17:54.039Z,12.90
2023-02-02T04:20:21.700Z,17.63
2023-02-02T04:22:49.337Z,19.13
2023-02-02T04:25:17.049Z,14.90
2023-02-02T04:27:46.034Z,13.07
2023-02-02T04:30:13.897Z,10.30
2023-02-02T04:32:42.120Z,14.50
2023-02-02T04:35:10.107Z,17.17
2023-02-02T04:37:37.787Z,12.93
2023-02-02T04:40:06.203Z,24.63
2023-02-02T04:42:35.004Z,15.67
2023-02-02T04:45:04.413Z,14.27
2023-02-02T04:47:32.107Z,13.63
2023-02-02T04:49:59.765Z,18.50
2023-02-02T04:52:27.382Z,10.57
2023-02-02T04:54:55.019Z,18.90
2023-02-02T04:57:22.648Z,16.23
2023-02-02T04:59:50.291Z,16.23
2023-02-02T05:02:19.510Z,12.50
2023-02-02T05:04:47.564Z,18.83
2023-02-02T05:07:15.233Z,16.07
2023-02-02T05:09:42.949Z,17.37
2023-02-02T05:12:10.552Z,15.43
2023-02-02T05:14:38.249Z,12.70
2023-02-02T05:17:05.887Z,19.43
2023-02-02T05:19:34.955Z,19.13
2023-02-02T05:22:02.698Z,15.87
2023-02-02T05:24:30.328Z,16.67
2023-02-02T05:27:00.611Z,22.97
2023-02-02T05:29:28.510Z,14.30
2023-02-02T05:31:56.195Z,17.03
2023-02-02T05:34:24.225Z,14.70
2023-02-02T05:36:53.478Z,12.77
2023-02-02T05:39:21.111Z,19.67
2023-02-02T05:41:48.809Z,17.57
2023-02-02T05:44:16.722Z,16.80
2023-02-02T05:46:45.572Z,18.47
2023-02-02T05:49:14.876Z,17.03
2023-02-02T05:51:45.957Z,18.33
2023-02-02T05:54:19.314Z,12.97
2023-02-02T05:56:47.388Z,20.60
2023-02-02T05:59:15.433Z,22.47
2023-02-02T06:01:43.221Z,14.93
2023-02-02T06:04:11.265Z,18.73
2023-02-02T06:06:39.125Z,12.60
2023-02-02T06:09:07.894Z,16.40
2023-02-02T06:11:37.002Z,18.20
2023-02-02T06:14:04.666Z,18.27
2023-02-02T06:16:32.351Z,20.60
2023-02-02T06:19:00.015Z,20.20
2023-02-02T06:21:31.043Z,12.97
2023-02-02T06:23:59.482Z,14.33
2023-02-02T06:26:27.497Z,17.53
2023-02-02T06:28:56.594Z,15.40
2023-02-02T06:31:24.440Z,15.33
2023-02-02T06:33:55.464Z,18.77
2023-02-02T06:36:24.017Z,15.13
2023-02-02T06:38:52.440Z,14.90
2023-02-02T06:41:21.310Z,22.83
2023-02-02T06:43:49.830Z,12.63
2023-02-02T06:46:19.005Z,18.77
2023-02-02T06:48:46.820Z,16.97
2023-02-02T06:51:14.736Z,13.83
2023-02-02T06:53:42.365Z,17.10
2023-02-02T06:56:13.710Z,16.70
2023-02-02T06:58:41.662Z,16.03
2023-02-02T07:01:10.983Z,13.47
2023-02-02T07:03:40.485Z,17.20
2023-02-02T07:06:15.839Z,18.73
2023-02-02T07:08:43.856Z,18.47
2023-02-02T07:11:15.276Z,12.93
2023-02-02T07:13:44.377Z,13.83
2023-02-02T07:16:12.909Z,19.20
2023-02-02T07:18:43.901Z,20.13
2023-02-02T07:21:18.739Z,19.93
2023-02-02T07:23:47.134Z,17.93
2023-02-02T07:26:15.957Z,15.43
2023-02-02T07:28:43.985Z,19.23
2023-02-02T07:31:16.565Z,14.23
2023-02-02T07:33:47.167Z,18.73
2023-02-02T07:36:17.387Z,17.10
2023-02-02T07:38:45.793Z,18.50
2023-02-02T07:41:13.701Z,23.20
2023-02-02T07:43:41.496Z,13.00
2023-02-02T07:46:12.948Z,19.10
2023-02-02T07:48:40.789Z,14.27
2023-02-02T07:51:13.083Z,23.63
2023-02-02T07:53:44.940Z,15.37
2023-02-02T07:56:14.205Z,14.90
2023-02-02T07:58:42.349Z,20.10
2023-02-02T08:01:12.015Z,20.47
2023-02-02T08:03:40.529Z,17.90
2023-02-02T08:06:15.343Z,18.73
2023-02-02T08:08:43.257Z,17.63
2023-02-02T08:11:12.182Z,17.20
2023-02-02T08:13:41.045Z,17.73
2023-02-02T08:16:09.274Z,19.63
2023-02-02T08:18:38.382Z,16.13
2023-02-02T08:21:08.381Z,17.67
2023-02-02T08:23:37.894Z,15.70
2023-02-02T08:26:10.739Z,24.77
2023-02-02T08:28:38.795Z,18.10
2023-02-02T08:31:08.995Z,19.93
2023-02-02T08:33:38.555Z,18.27
2023-02-02T08:36:09.305Z,18.40
2023-02-02T08:38:38.304Z,18.77
2023-02-02T08:41:06.797Z,16.67
2023-02-02T08:43:35.127Z,19.60
2023-02-02T08:46:05.549Z,11.03
2023-02-02T08:48:35.035Z,22.53
2023-02-02T08:51:03.008Z,16.50
2023-02-02T08:53:31.176Z,15.93
2023-02-02T08:56:01.873Z,15.00
2023-02-02T08:58:29.937Z,18.57
2023-02-02T09:01:05.403Z,17.70
2023-02-02T09:03:33.101Z,17.37
2023-02-02T09:06:05.407Z,15.27
2023-02-02T09:08:34.115Z,13.97
2023-02-02T09:11:11.583Z,18.33
2023-02-02T09:13:40.393Z,15.90
2023-02-02T09:16:11.046Z,10.73
2023-02-02T09:18:38.829Z,10.47
2023-02-02T09:21:08.695Z,15.00
2023-02-02T09:23:38.615Z,13.87
2023-02-02T09:26:15.814Z,16.43
2023-02-02T09:28:45.455Z,15.20
2023-02-02T09:31:13.456Z,18.70
2023-02-02T09:33:41.850Z,17.47
2023-02-02T09:36:11.586Z,10.50
2023-02-02T09:38:40.309Z,10.40
2023-02-02T09:41:29.204Z,11.07
2023-02-02T09:44:05.992Z,16.23
2023-02-02T09:46:42.107Z,11.13
2023-02-02T09:49:14.488Z,10.47
2023-02-02T09:51:45.953Z,11.47
2023-02-02T09:54:20.757Z,7.60
2023-02-02T09:56:54.528Z,17.23
2023-02-02T09:59:25.639Z,8.80
2023-02-02T10:01:57.026Z,12.83
2023-02-02T10:04:28.371Z,15.00
2023-02-02T10:06:59.311Z,9.23
2023-02-02T10:09:32.483Z,11.13
2023-02-02T10:12:07.660Z,13.23
2023-02-02T10:14:42.087Z,9.67
2023-02-02T10:17:39.342Z,8.00
2023-02-02T10:20:18.459Z,8.77
2023-02-02T10:22:47.779Z,8.83
2023-02-02T10:25:16.891Z,7.00
2023-02-02T10:27:56.595Z,9.00
2023-02-02T10:30:30.218Z,11.57
2023-02-02T10:33:05.987Z,11.37
2023-02-02T10:35:40.321Z,9.13
2023-02-02T10:38:20.405Z,10.00
2023-02-02T10:40:57.825Z,11.10
2023-02-02T10:43:51.471Z,9.70
2023-02-02T10:46:23.662Z,11.13
2023-02-02T10:48:52.927Z,8.80
2023-02-02T10:51:25.400Z,9.10
2023-02-02T10:53:55.205Z,10.03
2023-02-02T10:56:29.541Z,10.27
2023-02-02T10:59:06.840Z,7.20
2023-02-02T11:01:34.733Z,12.00
2023-02-02T11:04:31.939Z,11.43
2023-02-02T11:07:01.600Z,12.30
2023-02-02T11:09:33.455Z,8.40
2023-02-02T11:12:07.865Z,11.63
2023-02-02T11:14:45.413Z,15.17
2023-02-02T11:17:21.333Z,11.03
2023-02-02T11:19:50.070Z,10.23
2023-02-02T11:22:30.663Z,10.47
2023-02-02T11:25:01.207Z,11.13
2023-02-02T11:27:32.536Z,11.93
2023-02-02T11:30:12.838Z,12.37
2023-02-02T11:32:41.458Z,11.77
2023-02-02T11:35:22.051Z,14.60
2023-02-02T11:38:02.233Z,10.97
2023-02-02T11:40:35.288Z,13.67
2023-02-02T11:43:06.133Z,13.13
2023-02-02T11:45:38.998Z,10.20
2023-02-02T11:48:15.135Z,10.77
2023-02-02T11:50:47.388Z,15.00
2023-02-02T11:53:24.288Z,13.33
2023-02-02T11:55:52.641Z,10.43
2023-02-02T11:58:27.627Z,7.40
2023-02-02T12:01:00.349Z,9.43
2023-02-02T12:03:34.386Z,6.67
2023-02-02T12:06:03.052Z,10.17
2023-02-02T12:08:31.429Z,12.60
2023-02-02T12:11:01.671Z,9.87
2023-02-02T12:13:46.537Z,8.60
2023-02-02T12:16:29.556Z,10.00
2023-02-02T12:19:20.033Z,14.10
2023-02-02T12:21:56.699Z,9.30
2023-02-02T12:24:32.334Z,13.07
2023-02-02T12:27:14.943Z,9.37
2023-02-02T12:29:54.716Z,11.17
2023-02-02T12:32:35.439Z,14.87
2023-02-02T12:35:22.976Z,12.17
2023-02-02T12:38:00.293Z,11.10
2023-02-02T12:40:42.976Z,13.33
2023-02-02T12:43:20.019Z,10.13
2023-02-02T12:46:10.783Z,11.07
2023-02-02T12:49:04.425Z,15.10
2023-02-02T12:51:46.983Z,11.00
2023-02-02T12:54:44.386Z,9.37
2023-02-02T12:57:22.043Z,14.63
2023-02-02T13:00:17.502Z,7.07
2023-02-02T13:02:59.667Z,12.63
2023-02-02T13:05:54.273Z,9.60
2023-02-02T13:08:26.376Z,9.97
2023-02-02T13:10:58.799Z,9.80
2023-02-02T13:13:30.093Z,13.30
2023-02-02T13:16:04.744Z,10.23
2023-02-02T13:18:37.118Z,11.57
2023-02-02T13:21:09.683Z,12.63
2023-02-02T13:23:40.612Z,12.33
2023-02-02T13:26:13.851Z,13.63
2023-02-02T13:28:46.213Z,13.87
2023-02-02T13:31:19.030Z,16.90
2023-02-02T13:33:50.787Z,12.57
2023-02-02T13:36:25.972Z,16.67
2023-02-02T13:38:56.934Z,13.23
2023-02-02T13:41:25.295Z,10.83
2023-02-02T13:44:01.032Z,12.93
2023-02-02T13:46:37.877Z,8.27
2023-02-02T13:49:10.804Z,11.33
2023-02-02T13:51:55.007Z,22.27
2023-02-02T13:54:58.011Z,14.43
2023-02-02T13:57:48.557Z,10.87
2023-02-02T14:00:18.598Z,16.73
2023-02-02T14:02:48.766Z,10.67
2023-02-02T14:05:25.911Z,16.40
2023-02-02T14:08:03.211Z,12.73
2023-02-02T14:10:35.801Z,8.73
2023-02-02T14:13:32.572Z,13.40
2023-02-02T14:16:03.024Z,14.93
2023-02-02T14:18:53.883Z,15.20
2023-02-02T14:21:57.898Z,14.47
2023-02-02T14:24:48.780Z,12.47
2023-02-02T14:28:02.651Z,12.87
2023-02-02T14:30:36.174Z,13.47
2023-02-02T14:33:39.878Z,11.37
2023-02-02T14:36:17.966Z,14.30
2023-02-02T14:39:05.441Z,13.80
2023-02-02T14:42:10.260Z,13.57
2023-02-02T14:44:38.594Z,9.97
2023-02-02T14:47:43.560Z,14.83
2023-02-02T14:50:15.225Z,11.57
2023-02-02T14:52:43.039Z,10.93
2023-02-02T14:55:19.876Z,14.13
2023-02-02T14:57:57.411Z,9.93
2023-02-02T15:00:29.390Z,13.47
2023-02-02T15:02:57.192Z,12.30
2023-02-02T15:05:43.785Z,11.30
2023-02-02T15:08:24.561Z,11.53
2023-02-02T15:11:27.909Z,11.67
2023-02-02T15:14:07.346Z,12.63
2023-02-02T15:16:38.605Z,10.80
2023-02-02T15:19:14.665Z,14.13
2023-02-02T15:21:43.759Z,14.13
2023-02-02T15:24:23.594Z,8.43
2023-02-02T15:26:54.537Z,12.13
2023-02-02T15:29:34.477Z,14.67
2023-02-02T15:32:04.058Z,14.83
2023-02-02T15:34:39.956Z,13.57
2023-02-02T15:37:09.516Z,13.53
2023-02-02T15:39:41.178Z,13.87
2023-02-02T15:42:34.975Z,12.87
2023-02-02T15:45:04.813Z,13.60
2023-02-02T15:47:36.934Z,12.13
2023-02-02T15:50:17.725Z,11.37
2023-02-02T15:52:48.634Z,15.03
2023-02-02T15:55:22.408Z,12.90
2023-02-02T15:57:54.239Z,15.90
2023-02-02T16:00:29.641Z,6.57
2023-02-02T16:03:03.562Z,13.10
2023-02-02T16:05:47.890Z,10.67
2023-02-02T16:08:20.014Z,12.57
2023-02-02T16:10:50.076Z,7.17
2023-02-02T16:13:27.629Z,15.03
2023-02-02T16:15:58.990Z,9.77
2023-02-02T16:18:26.853Z,15.53
2023-02-02T16:20:55.974Z,10.83
2023-02-02T16:23:27.297Z,15.67
2023-02-02T16:25:58.046Z,12.60
2023-02-02T16:28:26.866Z,9.80
2023-02-02T16:31:01.538Z,15.73
2023-02-02T16:33:38.351Z,13.00
2023-02-02T16:36:25.054Z,12.30
2023-02-02T16:38:55.254Z,9.30
2023-02-02T16:41:28.905Z,8.13
2023-02-02T16:43:57.290Z,14.67
2023-02-02T16:46:45.747Z,5.40
2023-02-02T16:49:19.494Z,6.83
2023-02-02T16:51:50.211Z,8.13
2023-02-02T16:54:21.454Z,9.10
2023-02-02T16:56:53.660Z,13.63
2023-02-02T16:59:25.566Z,11.13
2023-02-02T17:02:01.047Z,11.83
2023-02-02T17:04:34.082Z,7.87
2023-02-02T17:07:08.797Z,10.27
2023-02-02T17:09:38.065Z,7.63
2023-02-02T17:17:14.850Z,11.97
2023-02-02T17:19:49.302Z,8.97
2023-02-02T17:23:01.080Z,13.03
2023-02-02T17:25:32.548Z,11.73
2023-02-02T17:32:23.757Z,11.67
2023-02-02T17:38:56.805Z,12.93
2023-02-02T17:41:24.896Z,5.97
2023-02-02T17:43:52.815Z,6.37
2023-02-02T17:49:52.200Z,7.97
2023-02-02T17:52:20.435Z,7.87
2023-02-02T17:58:29.333Z,13.67
2023-02-02T18:00:59.241Z,7.00
2023-02-02T18:03:30.948Z,9.10
2023-02-02T18:06:01.680Z,12.57
2023-02-02T18:08:30.428Z,11.27
2023-02-02T18:11:00.697Z,7.90
2023-02-02T18:13:31.370Z,11.23
2023-02-02T18:16:00.062Z,8.90
2023-02-02T18:18:29.736Z,10.50
2023-02-02T18:20:59.078Z,10.40
2023-02-02T18:23:30.014Z,8.40
2023-02-02T18:26:12.163Z,11.67
2023-02-02T18:28:40.875Z,11.23
2023-02-02T18:31:10.601Z,8.80
2023-02-02T18:33:45.601Z,7.03
2023-02-02T18:36:27.783Z,10.10
2023-02-02T18:39:05.145Z,6.83
2023-02-02T18:41:35.153Z,5.93
2023-02-02T18:44:11.169Z,10.97
2023-02-02T18:47:01.923Z,7.63
2023-02-02T18:49:52.426Z,10.77
2023-02-02T18:52:42.983Z,5.97
2023-02-02T18:58:51.259Z,8.97
2023-02-02T19:01:56.749Z,8.03
2023-02-02T19:05:31.672Z,7.13
2023-02-02T19:11:42.057Z,6.20
2023-02-02T19:15:11.494Z,7.40
2023-02-02T19:17:39.163Z,6.23
2023-02-02T19:20:22.130Z,11.30
2023-02-02T19:22:52.369Z,7.10
2023-02-02T19:25:20.096Z,9.20
2023-02-02T19:27:47.811Z,9.13
2023-02-02T19:30:22.167Z,8.27
2023-02-02T19:32:50.005Z,5.90
2023-02-02T19:35:20.839Z,9.03
2023-02-02T19:37:50.342Z,7.73
2023-02-02T19:40:22.577Z,8.13
2023-02-02T19:42:55.153Z,4.40
2023-02-02T19:45:28.103Z,7.50
2023-02-02T19:47:57.946Z,8.37
2023-02-02T19:50:29.320Z,7.00
2023-02-02T19:52:57.490Z,7.97
2023-02-02T19:55:28.213Z,4.23
2023-02-02T19:58:03.001Z,11.80
2023-02-02T20:00:33.608Z,8.50
2023-02-02T20:03:05.372Z,6.07
2023-02-02T20:05:36.204Z,7.30
2023-02-02T20:08:13.588Z,6.47
2023-02-02T20:10:44.476Z,9.90
2023-02-02T20:13:19.575Z,7.00
2023-02-02T20:15:49.889Z,5.60
2023-02-02T20:18:20.958Z,4.60
2023-02-02T20:20:52.382Z,5.83
2023-02-02T20:23:29.812Z,3.87
2023-02-02T20:25:59.098Z,7.60
2023-02-02T20:28:41.494Z,9.10
2023-02-02T20:31:13.311Z,5.47
2023-02-02T20:33:43.114Z,3.90
2023-02-02T20:36:28.512Z,5.87
2023-02-02T20:38:56.423Z,4.27
2023-02-02T20:41:24.384Z,3.77
2023-02-02T20:43:52.116Z,4.80
2023-02-02T20:46:21.110Z,5.00
2023-02-02T20:48:49.098Z,5.23
2023-02-02T20:51:16.821Z,8.40
2023-02-02T20:53:44.540Z,6.00
2023-02-02T20:56:12.327Z,5.07
2023-02-02T20:58:40.334Z,4.07
2023-02-02T21:01:08.113Z,5.80
2023-02-02T21:03:37.140Z,6.33
2023-02-02T21:06:04.930Z,3.87
2023-02-02T21:08:32.602Z,4.43
2023-02-02T21:11:00.507Z,6.20
2023-02-02T21:13:28.159Z,5.83
2023-02-02T21:15:55.814Z,4.13
2023-02-02T21:18:23.502Z,4.83
2023-02-02T21:20:52.527Z,6.33
2023-02-02T21:23:21.591Z,5.87
2023-02-02T21:25:49.378Z,4.73
2023-02-02T21:28:17.144Z,6.63
2023-02-02T21:30:45.756Z,5.40
2023-02-02T21:33:13.516Z,5.97
2023-02-02T21:35:41.134Z,4.23
2023-02-02T21:38:14.849Z,5.83
2023-02-02T21:40:42.765Z,4.67
2023-02-02T21:43:15.856Z,4.13
2023-02-02T21:45:44.819Z,5.13
2023-02-02T21:48:27.527Z,5.20
2023-02-02T21:50:55.169Z,4.47
2023-02-02T21:53:25.937Z,5.90
2023-02-02T21:55:54.935Z,3.03
2023-02-02T21:58:25.854Z,3.50
2023-02-02T22:00:54.462Z,2.67
2023-02-02T22:03:33.774Z,5.17
2023-02-02T22:06:16.313Z,4.60
2023-02-02T22:08:45.325Z,3.50
2023-02-02T22:11:23.321Z,4.43
2023-02-02T22:13:51.026Z,5.00
2023-02-02T22:16:21.417Z,5.10
2023-02-02T22:18:49.139Z,4.70
2023-02-02T22:21:20.890Z,3.60
2023-02-02T22:23:50.236Z,5.13
2023-02-02T22:26:30.379Z,4.13
2023-02-02T22:28:58.065Z,5.33
2023-02-02T22:31:25.869Z,5.27
2023-02-02T22:33:53.614Z,5.37
2023-02-02T22:36:21.290Z,5.60
2023-02-02T22:38:50.284Z,6.27
2023-02-02T22:41:18.022Z,5.90
2023-02-02T22:43:45.661Z,6.30
2023-02-02T22:46:13.302Z,5.53
2023-02-02T22:48:40.972Z,6.80
2023-02-02T22:51:08.993Z,6.40
2023-02-02T22:53:36.629Z,8.70
2023-02-02T22:56:06.577Z,6.70
2023-02-02T22:58:34.186Z,8.27
2023-02-02T23:01:01.847Z,6.77
2023-02-02T23:03:29.511Z,7.03
2023-02-02T23:05:57.204Z,6.60
2023-02-02T23:08:24.853Z,7.77
2023-02-02T23:10:52.540Z,7.93
2023-02-02T23:13:21.536Z,7.53
2023-02-02T23:15:49.248Z,8.33
2023-02-02T23:18:16.923Z,8.63
2023-02-02T23:20:47.929Z,7.43
2023-02-02T23:23:15.569Z,8.53
2023-02-02T23:25:43.182Z,8.30
2023-02-02T23:28:10.952Z,9.50
2023-02-02T23:30:40.073Z,8.17
2023-02-02T23:33:07.794Z,8.40
2023-02-02T23:35:35.423Z,9.33
2023-02-02T23:38:03.076Z,11.73
2023-02-02T23:40:30.722Z,9.80
2023-02-02T23:42:58.367Z,9.27
2023-02-02T23:45:26.056Z,10.30
2023-02-02T23:47:55.077Z,10.27
2023-02-02T23:50:22.765Z,13.07
2023-02-02T23:52:50.455Z,14.17
2023-02-02T23:55:18.193Z,12.23
2023-02-02T23:57:45.948Z,15.23
